sensor_id;sensor_type;location;lat;lon;timestamp;pressure;altitude;pressure_sealevel;temperature;humidity
70053;BME280;57398;52.032;4.376;2023-02-28T00:01:51;103434.53;;;0.57;nan
70053;BME280;57398;52.032;4.376;2023-02-28T00:04:40;103432.34;;;0.66;nan
70053;BME280;57398;52.032;4.376;2023-02-28T00:07:28;103427.97;;;0.82;nan
70053;BME280;57398;52.032;4.376;2023-02-28T00:10:17;103434.22;;;0.92;nan
70053;BME280;57398;52.032;4.376;2023-02-28T00:13:07;103436.22;;;1.01;nan
70053;BME280;57398;52.032;4.376;2023-02-28T00:16:03;103435.75;;;1.09;nan
70053;BME280;57398;52.032;4.376;2023-02-28T00:18:54;103442.97;;;1.17;nan
70053;BME280;57398;52.032;4.376;2023-02-28T00:21:42;103447.19;;;1.18;nan
70053;BME280;57398;52.032;4.376;2023-02-28T00:24:30;103449.19;;;1.27;nan
70053;BME280;57398;52.032;4.376;2023-02-28T00:27:18;103446.91;;;1.37;nan
70053;BME280;57398;52.032;4.376;2023-02-28T00:30:09;103439.59;;;1.45;nan
70053;BME280;57398;52.032;4.376;2023-02-28T00:32:59;103442.59;;;1.52;nan
70053;BME280;57398;52.032;4.376;2023-02-28T00:35:47;103449.00;;;1.59;nan
70053;BME280;57398;52.032;4.376;2023-02-28T00:38:35;103445.41;;;1.61;nan
70053;BME280;57398;52.032;4.376;2023-02-28T00:41:23;103447.69;;;1.66;nan
70053;BME280;57398;52.032;4.376;2023-02-28T00:44:11;103433.66;;;1.72;nan
70053;BME280;57398;52.032;4.376;2023-02-28T00:47:00;103441.72;;;1.80;nan
70053;BME280;57398;52.032;4.376;2023-02-28T00:49:49;103439.13;;;1.80;nan
70053;BME280;57398;52.032;4.376;2023-02-28T00:52:37;103432.47;;;1.77;nan
70053;BME280;57398;52.032;4.376;2023-02-28T00:55:25;103432.19;;;1.82;nan
70053;BME280;57398;52.032;4.376;2023-02-28T00:58:14;103427.97;;;1.81;nan
70053;BME280;57398;52.032;4.376;2023-02-28T01:01:02;103433.72;;;1.84;nan
70053;BME280;57398;52.032;4.376;2023-02-28T01:03:51;103436.38;;;1.83;nan
70053;BME280;57398;52.032;4.376;2023-02-28T01:06:40;103435.75;;;1.79;nan
70053;BME280;57398;52.032;4.376;2023-02-28T01:09:29;103443.25;;;1.82;nan
70053;BME280;57398;52.032;4.376;2023-02-28T01:12:17;103436.94;;;1.74;nan
70053;BME280;57398;52.032;4.376;2023-02-28T01:15:06;103444.56;;;1.75;nan
70053;BME280;57398;52.032;4.376;2023-02-28T01:17:54;103435.13;;;1.76;nan
70053;BME280;57398;52.032;4.376;2023-02-28T01:20:43;103434.66;;;1.83;nan
70053;BME280;57398;52.032;4.376;2023-02-28T01:23:33;103433.09;;;1.81;nan
70053;BME280;57398;52.032;4.376;2023-02-28T01:26:22;103444.91;;;1.83;nan
70053;BME280;57398;52.032;4.376;2023-02-28T01:29:10;103440.09;;;1.92;nan
70053;BME280;57398;52.032;4.376;2023-02-28T01:31:58;103438.56;;;1.89;nan
70053;BME280;57398;52.032;4.376;2023-02-28T01:34:47;103439.28;;;1.91;nan
70053;BME280;57398;52.032;4.376;2023-02-28T01:37:35;103435.72;;;1.94;nan
70053;BME280;57398;52.032;4.376;2023-02-28T01:40:24;103439.91;;;1.95;nan
70053;BME280;57398;52.032;4.376;2023-02-28T01:43:20;103429.94;;;1.90;nan
70053;BME280;57398;52.032;4.376;2023-02-28T01:46:10;103430.22;;;1.85;nan
70053;BME280;57398;52.032;4.376;2023-02-28T01:49:03;103437.91;;;1.85;nan
70053;BME280;57398;52.032;4.376;2023-02-28T01:51:54;103432.72;;;1.87;nan
70053;BME280;57398;52.032;4.376;2023-02-28T01:54:47;103430.97;;;1.87;nan
70053;BME280;57398;52.032;4.376;2023-02-28T01:57:40;103422.91;;;1.94;nan
70053;BME280;57398;52.032;4.376;2023-02-28T02:00:31;103415.00;;;1.97;nan
70053;BME280;57398;52.032;4.376;2023-02-28T02:03:20;103410.59;;;1.99;nan
70053;BME280;57398;52.032;4.376;2023-02-28T02:06:08;103404.13;;;1.93;nan
70053;BME280;57398;52.032;4.376;2023-02-28T02:08:56;103401.06;;;2.01;nan
70053;BME280;57398;52.032;4.376;2023-02-28T02:11:45;103399.97;;;2.05;nan
70053;BME280;57398;52.032;4.376;2023-02-28T02:14:48;103402.44;;;2.06;nan
70053;BME280;57398;52.032;4.376;2023-02-28T02:17:40;103410.94;;;2.07;nan
70053;BME280;57398;52.032;4.376;2023-02-28T02:30:55;103409.28;;;2.06;nan
70053;BME280;57398;52.032;4.376;2023-02-28T02:34:21;103406.63;;;2.07;nan
70053;BME280;57398;52.032;4.376;2023-02-28T02:37:17;103391.97;;;2.09;nan
70053;BME280;57398;52.032;4.376;2023-02-28T02:40:13;103402.88;;;2.13;nan
70053;BME280;57398;52.032;4.376;2023-02-28T02:43:07;103394.44;;;2.11;nan
70053;BME280;57398;52.032;4.376;2023-02-28T02:45:59;103393.44;;;2.14;nan
70053;BME280;57398;52.032;4.376;2023-02-28T02:48:51;103398.56;;;2.14;nan
70053;BME280;57398;52.032;4.376;2023-02-28T02:51:46;103391.69;;;2.14;nan
70053;BME280;57398;52.032;4.376;2023-02-28T02:54:37;103390.56;;;2.18;nan
70053;BME280;57398;52.032;4.376;2023-02-28T02:57:31;103390.75;;;2.15;nan
70053;BME280;57398;52.032;4.376;2023-02-28T03:00:24;103382.53;;;2.10;nan
70053;BME280;57398;52.032;4.376;2023-02-28T03:03:14;103393.44;;;2.14;nan
70053;BME280;57398;52.032;4.376;2023-02-28T03:06:07;103387.78;;;2.21;nan
70053;BME280;57398;52.032;4.376;2023-02-28T03:08:56;103389.84;;;2.29;nan
70053;BME280;57398;52.032;4.376;2023-02-28T03:11:45;103382.16;;;2.29;nan
70053;BME280;57398;52.032;4.376;2023-02-28T03:14:41;103388.94;;;2.30;nan
70053;BME280;57398;52.032;4.376;2023-02-28T03:17:56;103394.06;;;2.30;nan
70053;BME280;57398;52.032;4.376;2023-02-28T03:20:55;103393.25;;;2.29;nan
70053;BME280;57398;52.032;4.376;2023-02-28T03:23:53;103398.81;;;2.36;nan
70053;BME280;57398;52.032;4.376;2023-02-28T03:26:50;103403.81;;;2.38;nan
70053;BME280;57398;52.032;4.376;2023-02-28T03:29:45;103404.03;;;2.35;nan
70053;BME280;57398;52.032;4.376;2023-02-28T03:32:37;103393.47;;;2.39;nan
70053;BME280;57398;52.032;4.376;2023-02-28T03:35:31;103395.22;;;2.39;nan
70053;BME280;57398;52.032;4.376;2023-02-28T03:38:22;103391.81;;;2.38;nan
70053;BME280;57398;52.032;4.376;2023-02-28T03:41:16;103393.56;;;2.38;nan
70053;BME280;57398;52.032;4.376;2023-02-28T03:44:12;103398.69;;;2.38;nan
70053;BME280;57398;52.032;4.376;2023-02-28T03:47:05;103387.50;;;2.39;nan
70053;BME280;57398;52.032;4.376;2023-02-28T03:49:59;103392.94;;;2.34;nan
70053;BME280;57398;52.032;4.376;2023-02-28T03:52:51;103385.97;;;2.36;nan
70053;BME280;57398;52.032;4.376;2023-02-28T03:55:44;103389.16;;;2.40;nan
70053;BME280;57398;52.032;4.376;2023-02-28T03:58:37;103385.84;;;2.38;nan
70053;BME280;57398;52.032;4.376;2023-02-28T04:01:35;103395.22;;;2.39;nan
70053;BME280;57398;52.032;4.376;2023-02-28T04:04:24;103385.47;;;2.44;nan
70053;BME280;57398;52.032;4.376;2023-02-28T04:07:12;103387.09;;;2.45;nan
70053;BME280;57398;52.032;4.376;2023-02-28T04:10:00;103387.00;;;2.46;nan
70053;BME280;57398;52.032;4.376;2023-02-28T04:12:48;103388.84;;;2.44;nan
70053;BME280;57398;52.032;4.376;2023-02-28T04:15:37;103393.97;;;2.44;nan
70053;BME280;57398;52.032;4.376;2023-02-28T04:18:26;103391.09;;;2.49;nan
70053;BME280;57398;52.032;4.376;2023-02-28T04:21:14;103392.47;;;2.55;nan
70053;BME280;57398;52.032;4.376;2023-02-28T04:24:03;103390.78;;;2.54;nan
70053;BME280;57398;52.032;4.376;2023-02-28T04:26:53;103402.41;;;2.59;nan
70053;BME280;57398;52.032;4.376;2023-02-28T04:29:42;103401.06;;;2.54;nan
70053;BME280;57398;52.032;4.376;2023-02-28T04:32:31;103405.16;;;2.56;nan
70053;BME280;57398;52.032;4.376;2023-02-28T04:35:21;103402.00;;;2.53;nan
70053;BME280;57398;52.032;4.376;2023-02-28T04:38:09;103403.03;;;2.50;nan
70053;BME280;57398;52.032;4.376;2023-02-28T04:40:57;103402.38;;;2.46;nan
70053;BME280;57398;52.032;4.376;2023-02-28T04:43:46;103414.31;;;2.60;nan
70053;BME280;57398;52.032;4.376;2023-02-28T04:46:34;103416.06;;;2.60;nan
70053;BME280;57398;52.032;4.376;2023-02-28T04:49:22;103421.09;;;2.61;nan
70053;BME280;57398;52.032;4.376;2023-02-28T04:52:11;103418.53;;;2.61;nan
70053;BME280;57398;52.032;4.376;2023-02-28T04:54:59;103428.88;;;2.60;nan
70053;BME280;57398;52.032;4.376;2023-02-28T04:57:48;103426.22;;;2.61;nan
70053;BME280;57398;52.032;4.376;2023-02-28T05:00:36;103424.78;;;2.57;nan
70053;BME280;57398;52.032;4.376;2023-02-28T05:03:24;103425.59;;;2.58;nan
70053;BME280;57398;52.032;4.376;2023-02-28T05:06:14;103415.84;;;2.50;nan
70053;BME280;57398;52.032;4.376;2023-02-28T05:09:04;103415.22;;;2.46;nan
70053;BME280;57398;52.032;4.376;2023-02-28T05:11:52;103423.34;;;2.53;nan
70053;BME280;57398;52.032;4.376;2023-02-28T05:14:40;103423.13;;;2.56;nan
70053;BME280;57398;52.032;4.376;2023-02-28T05:17:28;103416.03;;;2.47;nan
70053;BME280;57398;52.032;4.376;2023-02-28T05:20:16;103418.59;;;2.47;nan
70053;BME280;57398;52.032;4.376;2023-02-28T05:23:05;103419.75;;;2.43;nan
70053;BME280;57398;52.032;4.376;2023-02-28T05:25:55;103412.06;;;2.43;nan
70053;BME280;57398;52.032;4.376;2023-02-28T05:28:43;103417.44;;;2.38;nan
70053;BME280;57398;52.032;4.376;2023-02-28T05:31:32;103421.97;;;2.35;nan
70053;BME280;57398;52.032;4.376;2023-02-28T05:34:20;103413.13;;;2.26;nan
70053;BME280;57398;52.032;4.376;2023-02-28T05:37:12;103418.56;;;2.21;nan
70053;BME280;57398;52.032;4.376;2023-02-28T05:40:00;103425.66;;;2.18;nan
70053;BME280;57398;52.032;4.376;2023-02-28T05:42:54;103419.25;;;2.10;nan
70053;BME280;57398;52.032;4.376;2023-02-28T05:45:42;103416.69;;;2.10;nan
70053;BME280;57398;52.032;4.376;2023-02-28T05:48:30;103421.72;;;2.12;nan
70053;BME280;57398;52.032;4.376;2023-02-28T05:51:18;103415.69;;;2.13;nan
70053;BME280;57398;52.032;4.376;2023-02-28T05:54:07;103419.44;;;2.07;nan
70053;BME280;57398;52.032;4.376;2023-02-28T05:56:55;103414.03;;;2.12;nan
70053;BME280;57398;52.032;4.376;2023-02-28T05:59:44;103407.28;;;2.11;nan
70053;BME280;57398;52.032;4.376;2023-02-28T06:02:32;103407.34;;;2.09;nan
70053;BME280;57398;52.032;4.376;2023-02-28T06:05:21;103403.84;;;2.10;nan
70053;BME280;57398;52.032;4.376;2023-02-28T06:08:09;103408.00;;;2.13;nan
70053;BME280;57398;52.032;4.376;2023-02-28T06:10:57;103407.44;;;2.08;nan
70053;BME280;57398;52.032;4.376;2023-02-28T06:13:45;103410.13;;;2.06;nan
70053;BME280;57398;52.032;4.376;2023-02-28T06:16:34;103403.25;;;2.07;nan
70053;BME280;57398;52.032;4.376;2023-02-28T06:19:23;103406.72;;;2.06;nan
70053;BME280;57398;52.032;4.376;2023-02-28T06:22:12;103408.16;;;2.10;nan
70053;BME280;57398;52.032;4.376;2023-02-28T06:25:00;103410.13;;;2.06;nan
70053;BME280;57398;52.032;4.376;2023-02-28T06:27:48;103397.91;;;2.10;nan
70053;BME280;57398;52.032;4.376;2023-02-28T06:30:36;103396.38;;;2.07;nan
70053;BME280;57398;52.032;4.376;2023-02-28T06:33:26;103402.31;;;2.08;nan
70053;BME280;57398;52.032;4.376;2023-02-28T06:36:15;103398.94;;;2.07;nan
70053;BME280;57398;52.032;4.376;2023-02-28T06:39:05;103400.59;;;2.08;nan
70053;BME280;57398;52.032;4.376;2023-02-28T06:41:53;103402.13;;;2.11;nan
70053;BME280;57398;52.032;4.376;2023-02-28T06:44:42;103406.41;;;2.10;nan
70053;BME280;57398;52.032;4.376;2023-02-28T06:47:30;103404.88;;;2.08;nan
70053;BME280;57398;52.032;4.376;2023-02-28T06:50:20;103403.16;;;2.08;nan
70053;BME280;57398;52.032;4.376;2023-02-28T06:53:08;103399.66;;;2.09;nan
70053;BME280;57398;52.032;4.376;2023-02-28T06:55:56;103402.22;;;2.09;nan
70053;BME280;57398;52.032;4.376;2023-02-28T06:58:46;103402.09;;;1.98;nan
70053;BME280;57398;52.032;4.376;2023-02-28T07:01:34;103411.81;;;1.93;nan
70053;BME280;57398;52.032;4.376;2023-02-28T07:04:22;103415.19;;;1.94;nan
70053;BME280;57398;52.032;4.376;2023-02-28T07:07:12;103418.34;;;1.84;nan
70053;BME280;57398;52.032;4.376;2023-02-28T07:10:00;103416.56;;;1.72;nan
70053;BME280;57398;52.032;4.376;2023-02-28T07:12:48;103422.88;;;1.66;nan
70053;BME280;57398;52.032;4.376;2023-02-28T07:15:36;103424.28;;;1.58;nan
70053;BME280;57398;52.032;4.376;2023-02-28T07:18:28;103428.66;;;1.56;nan
70053;BME280;57398;52.032;4.376;2023-02-28T07:21:16;103422.91;;;1.52;nan
70053;BME280;57398;52.032;4.376;2023-02-28T07:24:06;103414.41;;;1.52;nan
70053;BME280;57398;52.032;4.376;2023-02-28T07:26:54;103421.66;;;1.45;nan
70053;BME280;57398;52.032;4.376;2023-02-28T07:29:42;103429.78;;;1.37;nan
70053;BME280;57398;52.032;4.376;2023-02-28T07:32:30;103430.06;;;1.33;nan
70053;BME280;57398;52.032;4.376;2023-02-28T07:35:18;103437.75;;;1.33;nan
70053;BME280;57398;52.032;4.376;2023-02-28T07:38:07;103434.94;;;1.23;nan
70053;BME280;57398;52.032;4.376;2023-02-28T07:40:56;103440.78;;;1.25;nan
70053;BME280;57398;52.032;4.376;2023-02-28T07:43:44;103456.69;;;1.16;nan
70053;BME280;57398;52.032;4.376;2023-02-28T07:46:32;103460.34;;;1.12;nan
70053;BME280;57398;52.032;4.376;2023-02-28T07:49:23;103458.19;;;1.06;nan
70053;BME280;57398;52.032;4.376;2023-02-28T07:52:11;103467.75;;;1.02;nan
70053;BME280;57398;52.032;4.376;2023-02-28T07:54:59;103461.09;;;0.99;nan
70053;BME280;57398;52.032;4.376;2023-02-28T07:57:49;103469.22;;;0.92;nan
70053;BME280;57398;52.032;4.376;2023-02-28T08:00:37;103467.19;;;0.82;nan
70053;BME280;57398;52.032;4.376;2023-02-28T08:03:25;103483.53;;;0.80;nan
70053;BME280;57398;52.032;4.376;2023-02-28T08:06:18;103476.84;;;0.77;nan
70053;BME280;57398;52.032;4.376;2023-02-28T08:09:06;103479.03;;;0.69;nan
70053;BME280;57398;52.032;4.376;2023-02-28T08:11:55;103483.16;;;0.72;nan
70053;BME280;57398;52.032;4.376;2023-02-28T08:14:45;103477.13;;;0.73;nan
70053;BME280;57398;52.032;4.376;2023-02-28T08:17:33;103480.66;;;0.56;nan
70053;BME280;57398;52.032;4.376;2023-02-28T08:20:21;103482.38;;;0.55;nan
70053;BME280;57398;52.032;4.376;2023-02-28T08:23:09;103480.09;;;0.51;nan
70053;BME280;57398;52.032;4.376;2023-02-28T08:25:58;103477.31;;;0.39;nan
70053;BME280;57398;52.032;4.376;2023-02-28T08:28:46;103483.41;;;0.37;nan
70053;BME280;57398;52.032;4.376;2023-02-28T08:31:35;103479.13;;;0.37;nan
70053;BME280;57398;52.032;4.376;2023-02-28T08:34:25;103480.50;;;0.43;nan
70053;BME280;57398;52.032;4.376;2023-02-28T08:37:13;103486.69;;;0.39;nan
70053;BME280;57398;52.032;4.376;2023-02-28T08:40:02;103475.78;;;0.51;nan
70053;BME280;57398;52.032;4.376;2023-02-28T08:42:51;103482.28;;;0.57;nan
70053;BME280;57398;52.032;4.376;2023-02-28T08:45:39;103482.47;;;0.54;nan
70053;BME280;57398;52.032;4.376;2023-02-28T08:48:30;103474.72;;;0.55;nan
70053;BME280;57398;52.032;4.376;2023-02-28T08:51:19;103473.16;;;0.53;nan
70053;BME280;57398;52.032;4.376;2023-02-28T08:54:13;103474.72;;;0.55;nan
70053;BME280;57398;52.032;4.376;2023-02-28T08:57:03;103473.22;;;0.51;nan
70053;BME280;57398;52.032;4.376;2023-02-28T08:59:51;103469.69;;;0.54;nan
70053;BME280;57398;52.032;4.376;2023-02-28T09:02:39;103470.09;;;0.76;nan
70053;BME280;57398;52.032;4.376;2023-02-28T09:05:30;103456.56;;;0.74;nan
70053;BME280;57398;52.032;4.376;2023-02-28T09:08:19;103470.72;;;0.80;nan
70053;BME280;57398;52.032;4.376;2023-02-28T09:11:07;103476.72;;;0.95;nan
70053;BME280;57398;52.032;4.376;2023-02-28T09:13:55;103460.34;;;0.97;nan
70053;BME280;57398;52.032;4.376;2023-02-28T09:16:44;103457.81;;;1.26;nan
70053;BME280;57398;52.032;4.376;2023-02-28T09:19:32;103472.44;;;1.24;nan
70053;BME280;57398;52.032;4.376;2023-02-28T09:22:21;103474.81;;;1.27;nan
70053;BME280;57398;52.032;4.376;2023-02-28T09:25:09;103475.72;;;1.26;nan
70053;BME280;57398;52.032;4.376;2023-02-28T09:27:57;103467.88;;;1.29;nan
70053;BME280;57398;52.032;4.376;2023-02-28T09:30:47;103462.09;;;1.40;nan
70053;BME280;57398;52.032;4.376;2023-02-28T09:33:36;103471.13;;;1.45;nan
70053;BME280;57398;52.032;4.376;2023-02-28T09:36:26;103475.16;;;1.50;nan
70053;BME280;57398;52.032;4.376;2023-02-28T09:39:31;103475.22;;;1.62;nan
70053;BME280;57398;52.032;4.376;2023-02-28T09:42:21;103478.50;;;1.64;nan
70053;BME280;57398;52.032;4.376;2023-02-28T09:45:22;103480.78;;;1.83;nan
70053;BME280;57398;52.032;4.376;2023-02-28T09:48:14;103468.97;;;2.08;nan
70053;BME280;57398;52.032;4.376;2023-02-28T09:51:05;103467.72;;;2.28;nan
70053;BME280;57398;52.032;4.376;2023-02-28T09:53:57;103469.56;;;2.26;nan
70053;BME280;57398;52.032;4.376;2023-02-28T09:56:51;103467.06;;;2.24;nan
70053;BME280;57398;52.032;4.376;2023-02-28T09:59:54;103466.19;;;2.38;nan
70053;BME280;57398;52.032;4.376;2023-02-28T10:03:04;103469.53;;;2.53;nan
70053;BME280;57398;52.032;4.376;2023-02-28T10:05:59;103472.22;;;2.64;nan
70053;BME280;57398;52.032;4.376;2023-02-28T10:08:57;103473.13;;;2.63;nan
70053;BME280;57398;52.032;4.376;2023-02-28T10:11:50;103460.72;;;2.70;nan
70053;BME280;57398;52.032;4.376;2023-02-28T10:14:44;103461.22;;;2.88;nan
70053;BME280;57398;52.032;4.376;2023-02-28T10:17:38;103455.91;;;2.91;nan
70053;BME280;57398;52.032;4.376;2023-02-28T10:20:42;103451.47;;;3.06;nan
70053;BME280;57398;52.032;4.376;2023-02-28T10:23:34;103440.47;;;3.17;nan
70053;BME280;57398;52.032;4.376;2023-02-28T10:26:26;103449.03;;;3.54;nan
70053;BME280;57398;52.032;4.376;2023-02-28T10:29:17;103443.63;;;3.70;nan
70053;BME280;57398;52.032;4.376;2023-02-28T10:32:05;103432.53;;;3.69;nan
70053;BME280;57398;52.032;4.376;2023-02-28T10:34:57;103441.13;;;3.81;nan
70053;BME280;57398;52.032;4.376;2023-02-28T10:37:48;103433.41;;;4.05;nan
70053;BME280;57398;52.032;4.376;2023-02-28T10:40:37;103417.81;;;3.47;nan
70053;BME280;57398;52.032;4.376;2023-02-28T10:43:25;103418.25;;;3.28;nan
70053;BME280;57398;52.032;4.376;2023-02-28T10:46:16;103416.81;;;3.37;nan
70053;BME280;57398;52.032;4.376;2023-02-28T10:49:17;103410.06;;;3.10;nan
70053;BME280;57398;52.032;4.376;2023-02-28T10:52:09;103410.88;;;3.24;nan
70053;BME280;57398;52.032;4.376;2023-02-28T10:55:14;103409.44;;;3.32;nan
70053;BME280;57398;52.032;4.376;2023-02-28T10:58:02;103400.09;;;3.19;nan
70053;BME280;57398;52.032;4.376;2023-02-28T11:00:51;103392.19;;;3.22;nan
70053;BME280;57398;52.032;4.376;2023-02-28T11:03:41;103392.50;;;3.17;nan
70053;BME280;57398;52.032;4.376;2023-02-28T11:06:31;103396.19;;;3.26;nan
70053;BME280;57398;52.032;4.376;2023-02-28T11:09:23;103378.13;;;3.51;nan
70053;BME280;57398;52.032;4.376;2023-02-28T11:12:20;103374.28;;;3.81;nan
70053;BME280;57398;52.032;4.376;2023-02-28T11:15:21;103368.88;;;4.08;nan
70053;BME280;57398;52.032;4.376;2023-02-28T11:18:21;103362.16;;;4.41;nan
70053;BME280;57398;52.032;4.376;2023-02-28T11:21:19;103360.16;;;4.33;nan
70053;BME280;57398;52.032;4.376;2023-02-28T11:24:21;103361.72;;;4.58;nan
70053;BME280;57398;52.032;4.376;2023-02-28T11:27:25;103360.66;;;4.50;nan
70053;BME280;57398;52.032;4.376;2023-02-28T11:30:29;103348.59;;;4.50;nan
70053;BME280;57398;52.032;4.376;2023-02-28T11:33:23;103344.38;;;4.72;nan
70053;BME280;57398;52.032;4.376;2023-02-28T11:36:14;103351.75;;;4.43;nan
70053;BME280;57398;52.032;4.376;2023-02-28T11:39:10;103348.34;;;4.42;nan
70053;BME280;57398;52.032;4.376;2023-02-28T11:42:17;103352.47;;;4.78;nan
70053;BME280;57398;52.032;4.376;2023-02-28T11:45:21;103349.44;;;4.73;nan
70053;BME280;57398;52.032;4.376;2023-02-28T11:48:15;103340.06;;;4.83;nan
70053;BME280;57398;52.032;4.376;2023-02-28T11:51:13;103330.94;;;4.57;nan
70053;BME280;57398;52.032;4.376;2023-02-28T11:54:23;103336.09;;;4.57;nan
70053;BME280;57398;52.032;4.376;2023-02-28T11:57:23;103339.47;;;4.46;nan
70053;BME280;57398;52.032;4.376;2023-02-28T12:00:25;103344.72;;;4.22;nan
70053;BME280;57398;52.032;4.376;2023-02-28T12:03:26;103326.94;;;4.30;nan
70053;BME280;57398;52.032;4.376;2023-02-28T12:06:19;103330.22;;;4.55;nan
70053;BME280;57398;52.032;4.376;2023-02-28T12:09:20;103323.66;;;4.96;nan
70053;BME280;57398;52.032;4.376;2023-02-28T12:12:21;103314.78;;;5.64;nan
70053;BME280;57398;52.032;4.376;2023-02-28T12:15:27;103307.75;;;5.87;nan
70053;BME280;57398;52.032;4.376;2023-02-28T12:18:41;103298.03;;;5.59;nan
70053;BME280;57398;52.032;4.376;2023-02-28T12:21:47;103303.72;;;5.53;nan
70053;BME280;57398;52.032;4.376;2023-02-28T12:24:58;103302.06;;;5.52;nan
70053;BME280;57398;52.032;4.376;2023-02-28T12:27:48;103298.34;;;5.44;nan
70053;BME280;57398;52.032;4.376;2023-02-28T12:30:41;103295.66;;;5.46;nan
70053;BME280;57398;52.032;4.376;2023-02-28T12:33:34;103284.06;;;5.40;nan
70053;BME280;57398;52.032;4.376;2023-02-28T12:36:23;103293.13;;;5.56;nan
70053;BME280;57398;52.032;4.376;2023-02-28T12:39:16;103283.94;;;5.42;nan
70053;BME280;57398;52.032;4.376;2023-02-28T12:42:13;103276.44;;;5.18;nan
70053;BME280;57398;52.032;4.376;2023-02-28T12:45:09;103280.88;;;5.16;nan
70053;BME280;57398;52.032;4.376;2023-02-28T12:48:00;103288.16;;;5.43;nan
70053;BME280;57398;52.032;4.376;2023-02-28T12:50:51;103278.28;;;5.48;nan
70053;BME280;57398;52.032;4.376;2023-02-28T12:53:49;103293.41;;;5.20;nan
70053;BME280;57398;52.032;4.376;2023-02-28T12:56:45;103286.78;;;4.95;nan
70053;BME280;57398;52.032;4.376;2023-02-28T12:59:38;103273.47;;;4.90;nan
70053;BME280;57398;52.032;4.376;2023-02-28T13:02:56;103275.75;;;5.04;nan
70053;BME280;57398;52.032;4.376;2023-02-28T13:06:04;103263.44;;;5.08;nan
70053;BME280;57398;52.032;4.376;2023-02-28T13:09:08;103254.06;;;5.18;nan
70053;BME280;57398;52.032;4.376;2023-02-28T13:11:57;103251.03;;;5.13;nan
70053;BME280;57398;52.032;4.376;2023-02-28T13:14:47;103254.69;;;4.99;nan
70053;BME280;57398;52.032;4.376;2023-02-28T13:17:38;103246.91;;;5.11;nan
70053;BME280;57398;52.032;4.376;2023-02-28T13:20:35;103245.13;;;5.22;nan
70053;BME280;57398;52.032;4.376;2023-02-28T13:23:39;103248.63;;;5.21;nan
70053;BME280;57398;52.032;4.376;2023-02-28T13:29:57;103244.34;;;5.43;nan
70053;BME280;57398;52.032;4.376;2023-02-28T13:32:45;103239.94;;;5.34;nan
70053;BME280;57398;52.032;4.376;2023-02-28T13:35:36;103242.56;;;5.22;nan
70053;BME280;57398;52.032;4.376;2023-02-28T13:38:37;103234.72;;;5.13;nan
70053;BME280;57398;52.032;4.376;2023-02-28T13:41:46;103223.09;;;5.30;nan
70053;BME280;57398;52.032;4.376;2023-02-28T13:45:21;103230.13;;;5.28;nan
70053;BME280;57398;52.032;4.376;2023-02-28T13:48:17;103231.19;;;5.25;nan
70053;BME280;57398;52.032;4.376;2023-02-28T13:54:35;103227.34;;;5.40;nan
70053;BME280;57398;52.032;4.376;2023-02-28T13:57:37;103227.50;;;5.39;nan
70053;BME280;57398;52.032;4.376;2023-02-28T14:00:37;103219.53;;;5.31;nan
70053;BME280;57398;52.032;4.376;2023-02-28T14:03:49;103215.72;;;5.46;nan
70053;BME280;57398;52.032;4.376;2023-02-28T14:06:47;103221.84;;;5.66;nan
70053;BME280;57398;52.032;4.376;2023-02-28T14:09:38;103215.63;;;5.48;nan
70053;BME280;57398;52.032;4.376;2023-02-28T14:12:53;103212.09;;;5.49;nan
70053;BME280;57398;52.032;4.376;2023-02-28T14:16:05;103206.16;;;5.58;nan
70053;BME280;57398;52.032;4.376;2023-02-28T14:18:57;103206.47;;;5.64;nan
70053;BME280;57398;52.032;4.376;2023-02-28T14:22:00;103210.59;;;5.77;nan
70053;BME280;57398;52.032;4.376;2023-02-28T14:25:08;103202.84;;;5.67;nan
70053;BME280;57398;52.032;4.376;2023-02-28T14:28:06;103199.88;;;5.72;nan
70053;BME280;57398;52.032;4.376;2023-02-28T14:31:01;103205.97;;;5.71;nan
70053;BME280;57398;52.032;4.376;2023-02-28T14:34:12;103209.31;;;5.61;nan
70053;BME280;57398;52.032;4.376;2023-02-28T14:37:05;103198.63;;;5.45;nan
70053;BME280;57398;52.032;4.376;2023-02-28T14:39:55;103208.53;;;5.50;nan
70053;BME280;57398;52.032;4.376;2023-02-28T14:42:48;103201.81;;;5.58;nan
70053;BME280;57398;52.032;4.376;2023-02-28T14:45:42;103198.47;;;5.67;nan
70053;BME280;57398;52.032;4.376;2023-02-28T14:48:30;103203.09;;;5.64;nan
70053;BME280;57398;52.032;4.376;2023-02-28T14:51:22;103196.88;;;5.66;nan
70053;BME280;57398;52.032;4.376;2023-02-28T14:54:14;103194.84;;;5.49;nan
70053;BME280;57398;52.032;4.376;2023-02-28T14:57:04;103205.66;;;5.64;nan
70053;BME280;57398;52.032;4.376;2023-02-28T15:00:00;103191.13;;;5.63;nan
70053;BME280;57398;52.032;4.376;2023-02-28T15:02:50;103191.19;;;5.73;nan
70053;BME280;57398;52.032;4.376;2023-02-28T15:05:39;103191.44;;;5.70;nan
70053;BME280;57398;52.032;4.376;2023-02-28T15:08:29;103197.78;;;5.65;nan
70053;BME280;57398;52.032;4.376;2023-02-28T15:11:21;103194.16;;;5.68;nan
70053;BME280;57398;52.032;4.376;2023-02-28T15:14:16;103194.34;;;5.55;nan
70053;BME280;57398;52.032;4.376;2023-02-28T15:17:08;103203.22;;;5.41;nan
70053;BME280;57398;52.032;4.376;2023-02-28T15:19:59;103195.66;;;5.50;nan
70053;BME280;57398;52.032;4.376;2023-02-28T15:22:50;103198.44;;;5.58;nan
70053;BME280;57398;52.032;4.376;2023-02-28T15:25:41;103194.41;;;5.65;nan
70053;BME280;57398;52.032;4.376;2023-02-28T15:28:30;103191.94;;;5.63;nan
70053;BME280;57398;52.032;4.376;2023-02-28T15:31:21;103198.47;;;5.67;nan
70053;BME280;57398;52.032;4.376;2023-02-28T15:34:18;103199.56;;;5.65;nan
70053;BME280;57398;52.032;4.376;2023-02-28T15:37:25;103199.13;;;5.60;nan
70053;BME280;57398;52.032;4.376;2023-02-28T15:40:16;103203.84;;;5.55;nan
70053;BME280;57398;52.032;4.376;2023-02-28T15:43:12;103200.59;;;5.53;nan
70053;BME280;57398;52.032;4.376;2023-02-28T15:46:02;103197.63;;;5.57;nan
70053;BME280;57398;52.032;4.376;2023-02-28T15:48:53;103205.53;;;5.44;nan
70053;BME280;57398;52.032;4.376;2023-02-28T15:51:42;103195.28;;;5.33;nan
70053;BME280;57398;52.032;4.376;2023-02-28T15:54:33;103199.50;;;5.34;nan
70053;BME280;57398;52.032;4.376;2023-02-28T15:57:24;103199.69;;;5.21;nan